Terminal Aerodrome Forecast
Issued by NWS

Home | Current Version | Previous Version | Text Only | Print | Product List | Glossary Off
Versions: 1 2 3 4 5 6 7 8 9 10 11 12 13 14 15 16 17 18 19 20 21 22

288
FTUS43 KGRB 160350 AAA
TAFMTW
TAF AMD
KMTW 160350Z 1604/1624 35010KT 3SM -SHSN SCT015 OVC035
      TEMPO 1604/1608 1/2SM SHSN BKN015
     FM161100 35010G16KT 4SM -SN OVC029
     FM161600 34010G15KT 6SM -SN BKN030
     FM161900 33008KT P6SM BKN035=

USA.gov is the U.S. government's official web portal to all federal, state and local government web resources and services.